Time;durP1;ratioP1;P1;durP2;ratioP2;P2;SDS_P1;SDS_P2;PMS_P1;PMS_P2;Temp;Humidity;BMP_temperature;BMP_pressure;BME280_temperature;BME280_humidity;BME280_pressure;Samples;Min_cycle;Max_cycle;Signal;HPM_P1;HPM_P2
2021/08/21 00:00:32;;;;;;;3.85;2.83;;;13.00;99.90;;;;;;4953164;28;20026;-86
2021/08/21 00:02:57;;;;;;;3.35;2.53;;;13.10;99.90;;;;;;4991161;28;20062;-87
2021/08/21 00:05:23;;;;;;;3.30;2.97;;;13.00;99.90;;;;;;4974837;28;20080;-87
2021/08/21 00:07:49;;;;;;;3.13;2.58;;;13.00;99.90;;;;;;4995735;28;20033;-87
2021/08/21 00:10:15;;;;;;;2.97;2.33;;;13.00;99.90;;;;;;4974684;28;20041;-85
2021/08/21 00:12:41;;;;;;;3.25;2.60;;;13.00;99.90;;;;;;4957692;28;20039;-87
2021/08/21 00:15:10;;;;;;;4.25;2.60;;;13.00;99.90;;;;;;4960217;28;20505;-85
2021/08/21 00:17:37;;;;;;;3.40;2.42;;;12.90;99.90;;;;;;4952708;28;20034;-87
2021/08/21 00:20:08;;;;;;;3.10;2.80;;;12.90;99.90;;;;;;4977175;28;20749;-87
2021/08/21 00:22:33;;;;;;;3.75;2.75;;;12.90;99.90;;;;;;4976545;28;20031;-87
2021/08/21 00:24:59;;;;;;;6.00;2.83;;;12.90;99.90;;;;;;4972948;28;20046;-86
2021/08/21 00:27:27;;;;;;;4.00;2.65;;;12.90;99.90;;;;;;4958401;28;20105;-87
2021/08/21 00:29:56;;;;;;;2.85;2.55;;;12.80;99.90;;;;;;4959280;28;20037;-87
2021/08/21 00:32:21;;;;;;;4.65;2.25;;;12.90;99.90;;;;;;4992326;28;20041;-87
2021/08/21 00:34:47;;;;;;;3.80;2.85;;;12.80;99.90;;;;;;4956947;28;20033;-86
2021/08/21 00:37:13;;;;;;;3.88;2.40;;;12.80;99.90;;;;;;4980023;28;20026;-87
2021/08/21 00:39:39;;;;;;;3.67;2.10;;;12.80;99.90;;;;;;5012065;28;20109;-87
2021/08/21 00:42:05;;;;;;;3.25;1.77;;;12.80;99.90;;;;;;4968625;28;20073;-87
2021/08/21 00:44:32;;;;;;;2.53;2.08;;;12.80;99.90;;;;;;4975118;28;20064;-87
2021/08/21 00:47:08;;;;;;;2.70;2.00;;;12.80;99.90;;;;;;4975666;28;20030;-87
2021/08/21 00:49:35;;;;;;;3.38;2.28;;;12.70;99.90;;;;;;4972052;28;20045;-88
2021/08/21 00:52:03;;;;;;;3.15;2.45;;;12.70;99.90;;;;;;4990727;28;20489;-87
2021/08/21 00:54:28;;;;;;;3.05;2.50;;;12.70;99.90;;;;;;4956572;28;20033;-87
2021/08/21 00:56:56;;;;;;;5.00;2.78;;;12.60;99.90;;;;;;4981862;28;20034;-87
2021/08/21 00:59:22;;;;;;;2.90;2.60;;;12.60;99.90;;;;;;4971080;28;20053;-87
2021/08/21 01:01:49;;;;;;;3.88;2.95;;;12.60;99.90;;;;;;4967067;28;20631;-87
2021/08/21 01:04:14;;;;;;;3.78;3.03;;;12.60;99.90;;;;;;4977099;28;20041;-86
2021/08/21 01:06:40;;;;;;;3.70;2.85;;;12.50;99.90;;;;;;4992677;28;20113;-87
2021/08/21 01:09:06;;;;;;;2.78;2.47;;;12.50;99.90;;;;;;4969489;28;20178;-87
2021/08/21 01:11:33;;;;;;;3.58;2.75;;;12.50;99.90;;;;;;4985705;28;20377;-87
2021/08/21 01:13:59;;;;;;;4.82;2.90;;;12.50;99.90;;;;;;4992629;28;20028;-87
2021/08/21 01:16:26;;;;;;;4.03;2.97;;;12.50;99.90;;;;;;4960987;28;20089;-87
2021/08/21 01:18:52;;;;;;;3.40;2.92;;;12.50;99.90;;;;;;4958637;28;20046;-87
2021/08/21 01:21:19;;;;;;;4.47;2.75;;;12.50;99.90;;;;;;5010986;28;20629;-87
2021/08/21 01:23:45;;;;;;;4.25;3.05;;;12.40;99.90;;;;;;4958702;28;20037;-87
2021/08/21 01:26:14;;;;;;;3.22;2.92;;;12.40;99.90;;;;;;4964913;28;20036;-87
2021/08/21 01:29:00;;;;;;;;;;;12.40;99.90;;;;;;4987949;28;20053;-87
2021/08/21 01:31:39;;;;;;;3.05;2.65;;;12.40;99.90;;;;;;4982120;28;19913;-87
2021/08/21 01:34:05;;;;;;;3.92;2.30;;;12.40;99.90;;;;;;4994471;28;20052;-89
2021/08/21 01:36:45;;;;;;;3.03;2.60;;;12.40;99.90;;;;;;4962977;28;20022;-88
2021/08/21 01:39:29;;;;;;;3.15;2.42;;;12.30;99.90;;;;;;4993176;28;20554;-87
2021/08/21 01:42:00;;;;;;;4.10;2.90;;;12.30;99.90;;;;;;4976153;28;20034;-88
2021/08/21 01:44:27;;;;;;;4.07;2.80;;;12.30;99.90;;;;;;4991981;28;20029;-87
2021/08/21 01:46:52;;;;;;;2.50;2.28;;;12.30;99.90;;;;;;4976530;28;20033;-87
2021/08/21 01:49:21;;;;;;;3.05;2.38;;;12.30;99.90;;;;;;4987040;28;20041;-88
2021/08/21 01:51:50;;;;;;;2.95;2.45;;;12.20;99.90;;;;;;4981713;28;20026;-88
2021/08/21 01:54:21;;;;;;;3.28;2.35;;;12.20;99.90;;;;;;4991767;28;20416;-88
2021/08/21 01:56:58;;;;;;;3.20;2.50;;;12.20;99.90;;;;;;4958816;28;20080;-88
2021/08/21 01:59:44;;;;;;;3.72;3.03;;;12.20;99.90;;;;;;4972599;28;20507;-87
2021/08/21 02:02:17;;;;;;;3.42;2.85;;;12.20;99.90;;;;;;4991251;28;20481;-87
2021/08/21 02:04:55;;;;;;;4.53;3.10;;;12.10;99.90;;;;;;4980204;28;20026;-87
2021/08/21 02:07:20;;;;;;;3.70;2.42;;;12.10;99.90;;;;;;4953497;28;20036;-87
2021/08/21 02:09:46;;;;;;;3.72;2.97;;;12.10;99.90;;;;;;4969360;28;20030;-88
2021/08/21 02:12:16;;;;;;;3.17;2.80;;;12.10;99.90;;;;;;4954349;28;20026;-87
2021/08/21 02:14:45;;;;;;;2.70;2.50;;;12.10;99.90;;;;;;4995706;28;20045;-88
2021/08/21 02:17:11;;;;;;;3.03;2.72;;;12.00;99.90;;;;;;4963122;28;20072;-87
2021/08/21 02:19:49;;;;;;;5.70;2.30;;;12.00;99.90;;;;;;4977860;28;20125;-87
2021/08/21 02:22:16;;;;;;;2.63;2.40;;;12.00;99.90;;;;;;4979199;28;20196;-87
2021/08/21 02:24:51;;;;;;;3.53;2.95;;;12.00;99.90;;;;;;4988437;28;20030;-87
2021/08/21 02:27:21;;;;;;;3.10;2.67;;;11.90;99.90;;;;;;4959117;28;20030;-86
2021/08/21 02:29:49;;;;;;;3.47;3.03;;;11.90;99.90;;;;;;4974368;28;20428;-87
2021/08/21 02:32:14;;;;;;;3.55;2.88;;;11.90;99.90;;;;;;4989917;28;20381;-88
2021/08/21 02:34:40;;;;;;;4.30;2.85;;;11.80;99.90;;;;;;4976577;28;20105;-86
2021/08/21 02:37:06;;;;;;;3.58;2.92;;;11.80;99.90;;;;;;4971965;28;20108;-86
2021/08/21 02:39:32;;;;;;;3.25;2.95;;;11.80;99.90;;;;;;4979943;28;20072;-88
2021/08/21 02:41:58;;;;;;;3.53;2.88;;;11.90;99.90;;;;;;4974662;28;20034;-87
2021/08/21 02:44:24;;;;;;;4.60;3.30;;;11.80;99.90;;;;;;4994941;28;20033;-87
2021/08/21 02:46:50;;;;;;;3.78;2.92;;;11.80;99.90;;;;;;4962923;28;20029;-87
2021/08/21 02:49:17;;;;;;;3.53;3.13;;;11.80;99.90;;;;;;4970850;28;20045;-87
2021/08/21 02:51:43;;;;;;;2.80;2.47;;;11.80;99.90;;;;;;4955898;28;20033;-87
2021/08/21 02:54:08;;;;;;;4.07;3.10;;;11.80;99.90;;;;;;4976914;28;20058;-87
2021/08/21 02:56:34;;;;;;;3.58;2.80;;;11.80;99.90;;;;;;4980865;28;20642;-86
2021/08/21 02:59:00;;;;;;;3.92;2.88;;;11.80;99.90;;;;;;4958205;28;20033;-87
2021/08/21 03:01:26;;;;;;;3.53;2.88;;;11.80;99.90;;;;;;4990883;28;20117;-87
2021/08/21 03:03:52;;;;;;;3.45;2.97;;;11.80;99.90;;;;;;4976404;28;20065;-86
2021/08/21 03:06:18;;;;;;;2.95;2.58;;;11.80;99.90;;;;;;4961248;28;20034;-86
2021/08/21 03:08:44;;;;;;;3.05;2.63;;;11.80;99.90;;;;;;4969824;28;20026;-87
2021/08/21 03:11:10;;;;;;;3.13;2.75;;;11.80;99.90;;;;;;4937923;28;20064;-87
2021/08/21 03:13:56;;;;;;;3.13;2.78;;;11.80;99.90;;;;;;4982696;28;20057;-87
2021/08/21 03:16:22;;;;;;;4.25;3.17;;;11.70;99.90;;;;;;5003478;28;20515;-87
2021/08/21 03:18:48;;;;;;;4.38;3.10;;;11.70;99.90;;;;;;4970823;28;20585;-86
2021/08/21 03:21:15;;;;;;;3.83;2.90;;;11.70;99.90;;;;;;4973039;28;20053;-87
2021/08/21 03:23:42;;;;;;;3.40;2.65;;;11.70;99.90;;;;;;4961938;28;20092;-87
2021/08/21 03:26:08;;;;;;;2.88;2.60;;;11.70;99.90;;;;;;4978065;28;20117;-87
2021/08/21 03:28:36;;;;;;;3.88;2.55;;;11.70;99.90;;;;;;4978407;28;20129;-88
2021/08/21 03:31:02;;;;;;;3.13;2.40;;;11.70;99.90;;;;;;4955939;28;20110;-87
2021/08/21 03:33:27;;;;;;;4.75;2.60;;;11.70;99.90;;;;;;4966456;28;20034;-87
2021/08/21 03:35:53;;;;;;;3.90;2.70;;;11.70;99.90;;;;;;4958443;28;20034;-87
2021/08/21 03:38:20;;;;;;;3.85;2.65;;;11.70;99.90;;;;;;4951357;28;20038;-87
2021/08/21 03:40:57;;;;;;;3.33;2.47;;;11.60;99.90;;;;;;4960654;28;20041;-87
2021/08/21 03:43:23;;;;;;;3.20;2.83;;;11.60;99.90;;;;;;4958456;28;20026;-87
2021/08/21 03:45:49;;;;;;;2.97;2.60;;;11.60;99.90;;;;;;4971704;28;20033;-87
2021/08/21 03:48:17;;;;;;;2.10;1.90;;;11.60;99.90;;;;;;4982914;28;20088;-87
2021/08/21 03:50:43;;;;;;;2.80;2.20;;;11.60;99.90;;;;;;4954373;28;20038;-87
2021/08/21 03:53:08;;;;;;;3.00;2.47;;;11.50;99.90;;;;;;4962245;28;20041;-87
2021/08/21 03:55:41;;;;;;;3.15;2.67;;;11.40;99.90;;;;;;5008030;28;20050;-88
2021/08/21 03:58:07;;;;;;;3.08;2.58;;;11.40;99.90;;;;;;4981305;28;20133;-88
2021/08/21 04:00:33;;;;;;;3.65;2.92;;;11.40;99.90;;;;;;4999703;28;20061;-87
2021/08/21 04:03:08;;;;;;;3.10;2.57;;;11.40;99.90;;;;;;4973740;28;20484;-87
2021/08/21 04:05:35;;;;;;;3.55;2.55;;;11.40;99.90;;;;;;4965016;28;20503;-88
2021/08/21 04:08:02;;;;;;;2.60;2.40;;;11.30;99.90;;;;;;4958303;28;20068;-87
2021/08/21 04:10:28;;;;;;;2.75;2.30;;;11.30;99.90;;;;;;4988524;28;20053;-87
2021/08/21 04:12:58;;;;;;;2.67;2.47;;;11.30;99.90;;;;;;4956539;28;20137;-87
2021/08/21 04:15:24;;;;;;;2.40;2.20;;;11.30;99.90;;;;;;4993865;28;20126;-87
2021/08/21 04:17:50;;;;;;;2.38;2.17;;;11.20;99.90;;;;;;4971764;28;20030;-89
2021/08/21 04:20:16;;;;;;;3.38;2.78;;;11.20;99.90;;;;;;4957612;28;20113;-87
2021/08/21 04:22:42;;;;;;;2.83;2.35;;;11.20;99.90;;;;;;4954030;28;20122;-88
2021/08/21 04:25:08;;;;;;;2.58;2.20;;;11.20;99.90;;;;;;4976546;28;20060;-87
2021/08/21 04:27:35;;;;;;;2.38;1.80;;;11.20;99.90;;;;;;4958628;28;20045;-87
2021/08/21 04:30:01;;;;;;;1.92;1.70;;;11.20;99.90;;;;;;4969952;28;20384;-87
2021/08/21 04:32:26;;;;;;;1.90;1.67;;;11.20;99.90;;;;;;4977025;28;20041;-87
2021/08/21 04:34:53;;;;;;;2.80;2.20;;;11.20;99.90;;;;;;4958436;28;20029;-86
2021/08/21 04:37:20;;;;;;;2.53;1.90;;;11.20;99.90;;;;;;4959592;28;20420;-87
2021/08/21 04:39:46;;;;;;;3.33;2.60;;;11.20;99.90;;;;;;4973372;28;20030;-88
2021/08/21 04:42:19;;;;;;;3.60;2.90;;;11.20;99.90;;;;;;4974515;28;20121;-87
2021/08/21 04:44:46;;;;;;;2.40;2.20;;;11.20;99.90;;;;;;4974272;28;20030;-87
2021/08/21 04:47:13;;;;;;;3.22;2.50;;;11.20;99.90;;;;;;4945477;28;20471;-87
2021/08/21 04:49:40;;;;;;;2.85;2.10;;;11.20;99.90;;;;;;4985515;28;20057;-88
2021/08/21 04:52:07;;;;;;;5.43;2.50;;;11.20;99.90;;;;;;4960646;28;20041;-88
2021/08/21 04:54:34;;;;;;;2.45;2.25;;;11.20;99.90;;;;;;4958366;28;20027;-87
2021/08/21 04:57:00;;;;;;;3.45;2.75;;;11.30;99.90;;;;;;4960285;28;20023;-87
2021/08/21 04:59:28;;;;;;;3.88;2.33;;;11.40;99.90;;;;;;4972430;28;20038;-87
2021/08/21 05:01:57;;;;;;;4.38;2.50;;;11.40;99.90;;;;;;4995677;28;20033;-87
2021/08/21 05:04:23;;;;;;;4.55;2.50;;;11.40;99.90;;;;;;4963195;28;20030;-88
2021/08/21 05:06:51;;;;;;;2.85;2.53;;;11.40;99.90;;;;;;4965736;28;20519;-88
2021/08/21 05:09:17;;;;;;;2.58;2.38;;;11.50;99.90;;;;;;4988676;28;20029;-87
2021/08/21 05:11:46;;;;;;;2.97;2.40;;;11.50;99.90;;;;;;4968864;28;20030;-87
2021/08/21 05:14:12;;;;;;;3.00;2.70;;;11.50;99.90;;;;;;4979988;28;20022;-88
2021/08/21 05:16:39;;;;;;;2.40;2.20;;;11.60;99.90;;;;;;4978699;28;20085;-87
2021/08/21 05:22:20;;;;;;;2.30;2.10;;;11.70;99.90;;;;;;4975549;28;19921;-88
2021/08/21 05:24:46;;;;;;;2.40;2.13;;;11.70;99.90;;;;;;4963742;28;20069;-87
2021/08/21 05:27:11;;;;;;;2.00;1.90;;;11.80;99.90;;;;;;4978832;28;20074;-87
2021/08/21 05:29:38;;;;;;;2.60;2.28;;;11.90;99.90;;;;;;4988827;28;20429;-88
2021/08/21 05:32:05;;;;;;;2.17;1.98;;;11.90;99.90;;;;;;4989552;28;20081;-87
2021/08/21 05:34:31;;;;;;;2.55;2.13;;;12.00;99.90;;;;;;4990976;28;20100;-87
2021/08/21 05:36:56;;;;;;;2.45;1.90;;;12.00;99.90;;;;;;4975020;28;20027;-87
2021/08/21 05:39:23;;;;;;;3.67;2.28;;;12.10;99.90;;;;;;4977171;28;20026;-88
2021/08/21 05:41:48;;;;;;;2.10;1.90;;;12.20;99.90;;;;;;4988910;28;20042;-88
2021/08/21 05:44:14;;;;;;;2.53;2.28;;;12.30;99.90;;;;;;4976859;28;20045;-88
2021/08/21 05:46:40;;;;;;;2.60;2.28;;;12.40;99.90;;;;;;4984722;28;20128;-88
2021/08/21 05:49:05;;;;;;;3.35;2.35;;;12.60;99.90;;;;;;4981799;28;20037;-87
2021/08/21 05:51:31;;;;;;;4.88;2.20;;;12.80;99.90;;;;;;4994079;28;20084;-88
2021/08/21 05:53:57;;;;;;;2.40;2.03;;;13.10;99.90;;;;;;4983718;28;20041;-88
2021/08/21 05:56:23;;;;;;;2.50;2.17;;;13.30;99.90;;;;;;4995790;28;20030;-87
2021/08/21 05:58:49;;;;;;;3.75;2.15;;;13.60;99.90;;;;;;4975246;28;20041;-87
2021/08/21 06:01:15;;;;;;;2.85;2.30;;;13.80;99.90;;;;;;4977830;28;20032;-87
2021/08/21 06:03:41;;;;;;;3.33;2.25;;;14.10;99.90;;;;;;4993790;28;20146;-87
2021/08/21 06:06:11;;;;;;;3.67;2.40;;;14.30;99.90;;;;;;4983061;28;20095;-88
2021/08/21 06:08:38;;;;;;;2.53;2.30;;;14.50;99.90;;;;;;4983382;28;20057;-87
2021/08/21 06:11:04;;;;;;;4.22;3.40;;;14.70;99.90;;;;;;4960630;28;20093;-87
2021/08/21 06:13:37;;;;;;;3.53;2.88;;;15.00;99.90;;;;;;4987506;28;20038;-88
2021/08/21 06:16:03;;;;;;;2.35;2.15;;;15.20;99.90;;;;;;4983777;28;20725;-87
2021/08/21 06:18:31;;;;;;;4.97;2.95;;;15.40;99.90;;;;;;4983673;23;20046;-77
2021/08/21 06:20:57;;;;;;;3.08;2.78;;;15.70;99.90;;;;;;4992496;28;20464;-80
2021/08/21 06:23:22;;;;;;;3.15;2.72;;;15.90;99.90;;;;;;4990343;28;20027;-78
2021/08/21 06:25:48;;;;;;;3.88;2.95;;;16.10;99.90;;;;;;4997053;28;20035;-80
2021/08/21 06:28:14;;;;;;;3.38;2.72;;;16.40;99.90;;;;;;4995247;28;20542;-78
2021/08/21 06:30:39;;;;;;;5.60;2.70;;;16.60;99.90;;;;;;4977073;28;20050;-79
2021/08/21 06:33:05;;;;;;;2.60;2.40;;;16.80;99.90;;;;;;4991398;28;20034;-78
2021/08/21 06:35:31;;;;;;;4.50;3.00;;;17.10;99.90;;;;;;4982261;28;20027;-80
2021/08/21 06:37:56;;;;;;;5.20;2.42;;;17.30;99.90;;;;;;4986138;28;20029;-80
2021/08/21 06:40:22;;;;;;;2.65;2.30;;;17.50;99.90;;;;;;4986889;28;20118;-79
2021/08/21 06:42:48;;;;;;;2.92;2.20;;;17.80;99.90;;;;;;4975339;28;20030;-78
2021/08/21 06:45:36;;;;;;;3.47;2.42;;;18.00;99.90;;;;;;4993975;28;20041;-78
2021/08/21 06:48:02;;;;;;;3.10;2.72;;;18.30;99.90;;;;;;4985543;28;20669;-78
2021/08/21 06:50:33;;;;;;;2.97;2.30;;;18.50;99.90;;;;;;4992566;28;20112;-80
2021/08/21 06:53:03;;;;;;;2.63;2.35;;;18.70;99.90;;;;;;4989549;28;20035;-78
2021/08/21 06:55:29;;;;;;;2.50;2.30;;;18.80;99.90;;;;;;4985824;28;20037;-78
2021/08/21 06:57:55;;;;;;;4.18;3.08;;;19.10;99.90;;;;;;4985039;28;20050;-78
2021/08/21 07:00:21;;;;;;;3.53;2.72;;;19.20;99.90;;;;;;4987873;28;20054;-78
2021/08/21 07:02:47;;;;;;;3.28;2.95;;;19.40;99.90;;;;;;5002671;28;20505;-79
2021/08/21 07:05:12;;;;;;;4.20;2.50;;;19.40;99.90;;;;;;4983429;28;20035;-78
2021/08/21 07:07:38;;;;;;;3.45;3.10;;;19.60;99.90;;;;;;4987444;28;20030;-80
2021/08/21 07:10:05;;;;;;;3.65;2.63;;;19.70;99.90;;;;;;4986283;28;20040;-78
2021/08/21 07:12:31;;;;;;;2.85;2.58;;;19.90;99.90;;;;;;4985753;28;20057;-78
2021/08/21 07:14:56;;;;;;;5.00;3.30;;;20.10;99.90;;;;;;4985250;28;20492;-78
2021/08/21 07:17:22;;;;;;;4.30;3.63;;;20.10;99.90;;;;;;4992876;28;20031;-80
2021/08/21 07:19:48;;;;;;;5.82;4.03;;;20.20;99.90;;;;;;5007770;28;20087;-78
2021/08/21 07:22:13;;;;;;;4.75;3.10;;;20.30;99.90;;;;;;5008116;28;20025;-78
2021/08/21 07:24:40;;;;;;;5.03;3.67;;;20.30;99.90;;;;;;5004381;28;20037;-78
2021/08/21 07:27:06;;;;;;;5.00;3.70;;;20.40;99.90;;;;;;5007286;28;20035;-79
2021/08/21 07:29:32;;;;;;;4.80;3.70;;;20.60;99.90;;;;;;5003143;28;20078;-79
2021/08/21 07:31:57;;;;;;;4.55;3.65;;;20.60;99.90;;;;;;5005673;28;20029;-79
2021/08/21 07:34:23;;;;;;;4.53;3.67;;;20.70;99.90;;;;;;5010353;28;20245;-79
2021/08/21 07:36:49;;;;;;;5.20;3.58;;;20.80;99.90;;;;;;5001724;28;20030;-80
2021/08/21 07:39:14;;;;;;;4.13;3.70;;;20.90;99.90;;;;;;4992193;28;20030;-79
2021/08/21 07:41:40;;;;;;;4.00;3.60;;;21.00;99.90;;;;;;4997026;28;20309;-80
2021/08/21 07:44:06;;;;;;;4.85;3.53;;;21.10;99.90;;;;;;5005647;28;20046;-79
2021/08/21 07:46:31;;;;;;;4.30;3.30;;;21.20;99.90;;;;;;4996697;28;20034;-80
2021/08/21 07:48:57;;;;;;;4.45;3.40;;;21.20;99.90;;;;;;4990953;28;20508;-79
2021/08/21 07:51:23;;;;;;;4.20;3.17;;;21.20;99.90;;;;;;4976981;28;20026;-79
2021/08/21 07:53:49;;;;;;;4.50;3.40;;;21.20;99.90;;;;;;5004160;28;20057;-80
2021/08/21 07:56:14;;;;;;;4.22;3.20;;;21.20;99.90;;;;;;4994025;28;20037;-80
2021/08/21 07:58:40;;;;;;;4.80;2.72;;;21.20;99.90;;;;;;4974682;28;20130;-79
2021/08/21 08:01:06;;;;;;;4.38;3.42;;;21.20;99.90;;;;;;4976289;28;20061;-79
2021/08/21 08:03:32;;;;;;;4.90;3.85;;;21.20;99.90;;;;;;4998234;28;20403;-78
2021/08/21 08:05:57;;;;;;;4.57;2.67;;;21.20;99.90;;;;;;4985084;28;20042;-79
2021/08/21 08:08:23;;;;;;;3.72;2.95;;;21.20;99.90;;;;;;5001942;28;20030;-80
2021/08/21 08:10:50;;;;;;;3.50;2.78;;;21.20;99.90;;;;;;4988181;28;20514;-79
2021/08/21 08:13:16;;;;;;;3.53;2.83;;;21.20;99.90;;;;;;4994161;28;20507;-80
2021/08/21 08:15:42;;;;;;;4.95;3.40;;;21.10;99.90;;;;;;4988196;28;20035;-80
2021/08/21 08:18:09;;;;;;;4.30;3.40;;;21.10;99.90;;;;;;5009088;28;20057;-79
2021/08/21 08:20:34;;;;;;;3.90;3.30;;;21.20;99.90;;;;;;4996200;28;20095;-79
2021/08/21 08:23:01;;;;;;;4.18;3.35;;;21.20;99.90;;;;;;5009976;28;20030;-80
2021/08/21 08:25:27;;;;;;;4.70;3.45;;;21.20;99.90;;;;;;4982260;28;20064;-77
2021/08/21 08:27:53;;;;;;;3.47;2.67;;;21.20;99.90;;;;;;4975270;28;20030;-79
2021/08/21 08:30:18;;;;;;;3.83;2.65;;;21.20;99.90;;;;;;4988826;28;20170;-80
2021/08/21 08:32:44;;;;;;;2.85;2.20;;;21.20;99.90;;;;;;4991611;28;20076;-78
2021/08/21 08:35:11;;;;;;;2.75;2.50;;;21.10;99.90;;;;;;5005677;28;20460;-78
2021/08/21 08:37:37;;;;;;;4.15;2.90;;;21.10;99.90;;;;;;4973508;28;20113;-78
2021/08/21 08:40:04;;;;;;;4.05;3.35;;;21.00;99.90;;;;;;4963799;28;20035;-80
2021/08/21 08:42:31;;;;;;;3.55;2.67;;;20.80;99.90;;;;;;4992120;28;20412;-78
2021/08/21 08:44:56;;;;;;;2.80;2.60;;;20.80;99.90;;;;;;5013286;28;20037;-78
2021/08/21 08:47:22;;;;;;;4.38;2.25;;;20.90;99.90;;;;;;5003356;28;20026;-78
2021/08/21 08:49:49;;;;;;;3.40;2.35;;;20.90;99.90;;;;;;5015217;28;20404;-79
2021/08/21 08:52:16;;;;;;;3.13;2.08;;;21.00;99.90;;;;;;5009498;28;20051;-78
2021/08/21 08:54:43;;;;;;;2.80;2.40;;;21.00;99.90;;;;;;5014295;28;20049;-80
2021/08/21 08:57:09;;;;;;;2.90;2.30;;;21.10;99.90;;;;;;5013894;28;20030;-79
2021/08/21 08:59:35;;;;;;;3.42;2.92;;;21.10;99.90;;;;;;5009571;28;20565;-80
2021/08/21 09:02:01;;;;;;;3.15;2.47;;;21.20;99.90;;;;;;4993824;28;20113;-79
2021/08/21 09:04:27;;;;;;;2.80;2.10;;;21.30;99.90;;;;;;5011910;28;20120;-79
2021/08/21 09:06:54;;;;;;;2.00;1.80;;;21.40;99.90;;;;;;5006273;28;20038;-79
2021/08/21 09:09:22;;;;;;;1.98;1.77;;;21.50;99.90;;;;;;4994523;28;20044;-78
2021/08/21 09:11:52;;;;;;;2.22;1.88;;;21.70;99.90;;;;;;4991784;28;20041;-79
2021/08/21 09:14:30;;;;;;;1.85;1.50;;;21.70;99.90;;;;;;5008823;28;20053;-78
2021/08/21 09:17:19;;;;;;;2.58;1.63;;;21.70;99.90;;;;;;5005966;28;20033;-78
2021/08/21 09:19:47;;;;;;;2.30;1.60;;;21.80;99.90;;;;;;5006563;28;20030;-79
2021/08/21 09:22:14;;;;;;;2.90;2.17;;;21.90;99.90;;;;;;4986375;28;20045;-76
2021/08/21 09:24:42;;;;;;;3.50;2.28;;;21.90;99.90;;;;;;5004429;28;20030;-78
2021/08/21 09:27:24;;;;;;;6.10;2.05;;;21.90;99.90;;;;;;5010112;28;20076;-78
2021/08/21 09:30:05;;;;;;;4.35;1.90;;;22.00;99.90;;;;;;5000518;28;20076;-78
2021/08/21 09:32:32;;;;;;;5.88;2.28;;;22.10;99.90;;;;;;4983471;28;20037;-78
2021/08/21 09:35:03;;;;;;;1.60;1.50;;;22.20;99.90;;;;;;4991413;28;20495;-78
2021/08/21 09:37:28;;;;;;;2.45;2.08;;;22.30;99.90;;;;;;4998870;28;20397;-78
2021/08/21 09:40:02;;;;;;;1.85;1.70;;;22.30;99.90;;;;;;4969454;28;20029;-77
2021/08/21 09:42:37;;;;;;;2.03;1.83;;;22.30;99.90;;;;;;4992569;28;20041;-78
2021/08/21 09:45:09;;;;;;;1.83;1.70;;;22.40;99.90;;;;;;4998954;28;20036;-79
2021/08/21 09:47:39;;;;;;;3.08;2.20;;;22.60;99.90;;;;;;5005942;28;20338;-78
2021/08/21 09:50:17;;;;;;;2.80;2.22;;;22.60;99.90;;;;;;4997336;28;20087;-78
2021/08/21 09:52:44;;;;;;;2.63;2.30;;;22.70;99.90;;;;;;4986699;28;20452;-78
2021/08/21 09:55:19;;;;;;;3.00;2.20;;;22.70;99.90;;;;;;4990739;28;20031;-78
2021/08/21 09:57:58;;;;;;;2.25;1.90;;;22.80;99.90;;;;;;4990114;28;20095;-79
2021/08/21 10:00:24;;;;;;;2.17;1.83;;;22.80;99.90;;;;;;5006493;28;20038;-79
2021/08/21 10:02:51;;;;;;;2.00;1.80;;;22.80;99.90;;;;;;4987597;28;20496;-78
2021/08/21 10:05:17;;;;;;;2.70;1.88;;;22.90;99.90;;;;;;4994220;28;20061;-79
2021/08/21 10:07:47;;;;;;;2.38;1.45;;;22.90;99.90;;;;;;4954949;28;20052;-77
2021/08/21 10:10:16;;;;;;;1.67;1.40;;;22.90;99.90;;;;;;5005273;28;20030;-78
2021/08/21 10:12:45;;;;;;;2.10;1.80;;;22.90;99.90;;;;;;5005608;28;20072;-76
2021/08/21 10:15:13;;;;;;;1.60;1.50;;;22.70;99.90;;;;;;4989158;28;20066;-78
2021/08/21 10:17:39;;;;;;;1.70;1.60;;;22.70;99.90;;;;;;5027415;23;20049;-76
2021/08/21 10:20:06;;;;;;;2.10;1.60;;;22.70;99.90;;;;;;5042888;28;20399;-77
2021/08/21 10:22:32;;;;;;;2.53;1.88;;;22.80;99.90;;;;;;5013178;28;20093;-76
2021/08/21 10:25:06;;;;;;;1.50;1.40;;;22.60;99.90;;;;;;5015083;28;20112;-76
2021/08/21 10:27:37;;;;;;;2.80;1.65;;;22.60;99.90;;;;;;5045564;28;20029;-77
2021/08/21 10:30:10;;;;;;;1.42;1.20;;;22.70;99.90;;;;;;5034619;28;20104;-78
2021/08/21 10:32:56;;;;;;;1.63;1.52;;;22.70;99.90;;;;;;5032991;28;20120;-77
2021/08/21 10:35:42;;;;;;;2.88;1.50;;;22.70;99.90;;;;;;5026917;28;20061;-76
2021/08/21 10:38:33;;;;;;;2.13;1.48;;;22.80;99.90;;;;;;5030127;28;20029;-76
2021/08/21 10:41:21;;;;;;;1.73;1.40;;;22.90;99.90;;;;;;5036956;28;20025;-76
2021/08/21 10:43:50;;;;;;;2.17;1.45;;;23.00;99.90;;;;;;5013529;28;20506;-76
2021/08/21 10:46:39;;;;;;;1.30;1.20;;;23.00;99.90;;;;;;5026198;28;20033;-76
2021/08/21 10:49:06;;;;;;;1.30;1.10;;;22.90;99.90;;;;;;5026149;28;20821;-77
2021/08/21 10:51:40;;;;;;;2.38;1.40;;;22.90;99.90;;;;;;5038400;28;20030;-79
2021/08/21 10:54:24;;;;;;;2.25;1.75;;;22.90;99.90;;;;;;5006005;28;20356;-80
2021/08/21 10:56:52;;;;;;;2.25;1.60;;;22.90;99.90;;;;;;5003883;28;20323;-79
2021/08/21 10:59:44;;;;;;;1.27;1.17;;;22.90;99.90;;;;;;5006033;28;20481;-80
2021/08/21 11:02:25;;;;;;;1.92;1.50;;;23.00;99.90;;;;;;5010540;28;20048;-79
2021/08/21 11:04:52;;;;;;;1.33;1.10;;;23.00;99.90;;;;;;5025248;28;20095;-77
2021/08/21 11:07:30;;;;;;;1.90;1.45;;;23.10;99.90;;;;;;5013792;28;20041;-77
2021/08/21 11:10:21;;;;;;;1.20;1.10;;;23.10;99.90;;;;;;5011026;28;20025;-77
2021/08/21 11:12:50;;;;;;;1.38;1.27;;;23.10;99.90;;;;;;5023452;28;20387;-77
2021/08/21 11:15:19;;;;;;;1.63;1.35;;;23.00;99.90;;;;;;5020026;28;20014;-77
2021/08/21 11:17:45;;;;;;;1.73;1.63;;;23.10;99.90;;;;;;5018723;28;20188;-77
2021/08/21 11:20:34;;;;;;;2.08;1.60;;;23.20;99.90;;;;;;4990224;28;20033;-78
2021/08/21 11:23:08;;;;;;;2.25;1.60;;;23.30;99.10;;;;;;5001164;28;20124;-78
2021/08/21 11:25:40;;;;;;;1.63;1.27;;;23.50;99.90;;;;;;5020463;28;20022;-78
2021/08/21 11:28:07;;;;;;;1.48;1.38;;;23.60;99.60;;;;;;5001525;28;20369;-78
2021/08/21 11:30:38;;;;;;;1.65;1.52;;;23.70;96.90;;;;;;4972013;28;20030;-77
2021/08/21 11:33:06;;;;;;;1.60;1.33;;;23.70;99.90;;;;;;5026834;28;20029;-77
2021/08/21 11:35:51;;;;;;;1.40;1.30;;;23.90;99.90;;;;;;5007363;28;20048;-78
2021/08/21 11:38:29;;;;;;;1.57;1.30;;;24.10;99.90;;;;;;5007156;28;20017;-77
2021/08/21 11:41:12;;;;;;;1.50;1.40;;;24.20;99.90;;;;;;5029877;28;20025;-77
2021/08/21 11:43:42;;;;;;;1.20;1.05;;;24.30;99.90;;;;;;5026386;28;20027;-77
2021/08/21 11:46:09;;;;;;;2.25;1.60;;;24.30;99.60;;;;;;5020651;28;20045;-78
2021/08/21 11:48:37;;;;;;;1.60;1.50;;;24.20;99.20;;;;;;5008347;28;20522;-77
2021/08/21 11:51:04;;;;;;;1.45;1.27;;;24.20;96.00;;;;;;5028343;28;20032;-78
2021/08/21 11:53:33;;;;;;;1.63;1.35;;;24.10;97.10;;;;;;5005434;28;20563;-77
2021/08/21 11:56:02;;;;;;;1.40;1.30;;;24.00;99.90;;;;;;5028345;28;20025;-77
2021/08/21 11:58:29;;;;;;;3.22;1.52;;;24.10;99.90;;;;;;5010729;28;20046;-77
2021/08/21 12:01:02;;;;;;;1.38;1.27;;;24.10;99.90;;;;;;5030051;28;20057;-77
2021/08/21 12:06:24;;;;;;;1.50;1.35;;;24.20;99.90;;;;;;5022908;28;20045;-78
2021/08/21 12:08:51;;;;;;;1.25;1.15;;;24.20;99.90;;;;;;5030865;28;20087;-81
2021/08/21 12:11:18;;;;;;;1.40;1.30;;;24.20;99.90;;;;;;5025984;28;20029;-79
2021/08/21 12:13:44;;;;;;;1.73;1.35;;;24.20;99.90;;;;;;5005774;28;20034;-81
2021/08/21 12:16:15;;;;;;;2.40;1.48;;;24.30;99.60;;;;;;5006920;28;20044;-81
2021/08/21 12:18:47;;;;;;;1.83;1.38;;;24.20;95.40;;;;;;5009997;28;20075;-79
2021/08/21 12:21:18;;;;;;;1.50;1.17;;;24.30;99.10;;;;;;5042556;28;20506;-81
2021/08/21 12:23:46;;;;;;;3.90;1.40;;;24.50;99.60;;;;;;4983927;28;20037;-82
2021/08/21 12:26:12;;;;;;;3.08;1.50;;;24.70;95.30;;;;;;5010013;28;20454;-79
2021/08/21 12:28:43;;;;;;;1.30;1.10;;;24.90;94.10;;;;;;5008846;28;20033;-76
2021/08/21 12:31:14;;;;;;;2.10;1.58;;;24.80;94.10;;;;;;5008657;28;20049;-77
2021/08/21 12:33:40;;;;;;;2.33;1.20;;;24.80;94.10;;;;;;5029415;28;20022;-77
2021/08/21 12:36:11;;;;;;;1.70;1.45;;;24.70;92.50;;;;;;5026187;28;20029;-77
2021/08/21 12:38:37;;;;;;;1.48;1.30;;;24.70;92.70;;;;;;5004022;28;20468;-77
2021/08/21 12:41:17;;;;;;;2.97;1.55;;;24.70;93.20;;;;;;5008381;28;20120;-77
2021/08/21 12:43:43;;;;;;;1.73;1.60;;;24.80;95.80;;;;;;5028349;28;20033;-77
2021/08/21 12:46:19;;;;;;;2.03;1.55;;;25.00;97.50;;;;;;5005539;28;20538;-78
2021/08/21 12:48:48;;;;;;;1.20;1.10;;;25.20;93.20;;;;;;5003242;28;20021;-76
2021/08/21 12:51:32;;;;;;;1.30;1.20;;;25.50;91.60;;;;;;5000901;28;20373;-76
2021/08/21 12:54:06;;;;;;;1.95;1.45;;;25.50;90.60;;;;;;5023051;28;20029;-77
2021/08/21 12:56:32;;;;;;;1.42;1.30;;;25.60;90.80;;;;;;5003278;28;20026;-76
2021/08/21 12:59:12;;;;;;;1.60;1.33;;;25.40;86.40;;;;;;5024850;28;20022;-76
2021/08/21 13:01:38;;;;;;;1.50;1.40;;;25.30;90.00;;;;;;5010272;28;20419;-77